sensor_id;sensor_type;location;lat;lon;timestamp;pressure;altitude;pressure_sealevel;temperature;humidity
62458;BME280;48509;52.122;5.250;2023-05-22T00:02:51;101559.0;;;17.04;100.0
62458;BME280;48509;52.122;5.250;2023-05-22T00:04:27;101561.0;;;17.18;100.0
62458;BME280;48509;52.122;5.250;2023-05-22T00:06:03;101566.0;;;17.09;100.0
62458;BME280;48509;52.122;5.250;2023-05-22T00:09:16;101573.0;;;17.0;100.0
62458;BME280;48509;52.122;5.250;2023-05-22T00:10:52;101570.0;;;17.03;100.0
62458;BME280;48509;52.122;5.250;2023-05-22T00:12:29;101557.0;;;17.06;100.0
62458;BME280;48509;52.122;5.250;2023-05-22T00:15:41;101555.0;;;17.18;100.0
62458;BME280;48509;52.122;5.250;2023-05-22T00:17:17;101555.0;;;17.31;100.0
62458;BME280;48509;52.122;5.250;2023-05-22T00:18:54;101546.0;;;17.29;100.0
62458;BME280;48509;52.122;5.250;2023-05-22T00:22:08;101535.0;;;17.2;100.0
62458;BME280;48509;52.122;5.250;2023-05-22T00:23:44;101531.0;;;17.18;100.0
62458;BME280;48509;52.122;5.250;2023-05-22T00:25:20;101524.0;;;17.22;100.0
62458;BME280;48509;52.122;5.250;2023-05-22T00:26:57;101521.0;;;17.21;100.0
62458;BME280;48509;52.122;5.250;2023-05-22T00:30:10;101512.0;;;17.18;100.0
62458;BME280;48509;52.122;5.250;2023-05-22T00:31:46;101506.0;;;17.2;100.0
62458;BME280;48509;52.122;5.250;2023-05-22T00:33:22;101499.0;;;17.25;100.0
62458;BME280;48509;52.122;5.250;2023-05-22T00:36:35;101498.0;;;17.27;100.0
62458;BME280;48509;52.122;5.250;2023-05-22T00:38:26;101498.0;;;17.36;100.0
62458;BME280;48509;52.122;5.250;2023-05-22T00:40:04;101499.0;;;17.41;100.0
62458;BME280;48509;52.122;5.250;2023-05-22T00:41:41;101498.0;;;17.5;100.0
62458;BME280;48509;52.122;5.250;2023-05-22T00:44:53;101497.0;;;17.53;100.0
62458;BME280;48509;52.122;5.250;2023-05-22T00:46:30;101501.0;;;17.52;100.0
62458;BME280;48509;52.122;5.250;2023-05-22T00:48:08;101499.0;;;17.48;100.0
62458;BME280;48509;52.122;5.250;2023-05-22T00:51:22;101497.0;;;17.45;100.0
62458;BME280;48509;52.122;5.250;2023-05-22T00:53:00;101494.0;;;17.37;100.0
62458;BME280;48509;52.122;5.250;2023-05-22T00:54:36;101501.0;;;17.39;100.0
62458;BME280;48509;52.122;5.250;2023-05-22T00:56:13;101502.0;;;17.46;100.0
62458;BME280;48509;52.122;5.250;2023-05-22T00:59:27;101505.0;;;17.5;100.0
62458;BME280;48509;52.122;5.250;2023-05-22T01:01:04;101509.0;;;17.52;100.0
62458;BME280;48509;52.122;5.250;2023-05-22T01:02:40;101500.0;;;17.52;100.0
62458;BME280;48509;52.122;5.250;2023-05-22T01:05:53;101508.0;;;17.62;100.0
62458;BME280;48509;52.122;5.250;2023-05-22T01:07:30;101505.0;;;17.55;100.0
62458;BME280;48509;52.122;5.250;2023-05-22T01:09:07;101505.0;;;17.47;100.0
62458;BME280;48509;52.122;5.250;2023-05-22T01:12:30;101497.0;;;17.64;100.0
62458;BME280;48509;52.122;5.250;2023-05-22T01:14:15;101484.0;;;17.64;100.0
62458;BME280;48509;52.122;5.250;2023-05-22T01:16:09;101480.0;;;17.55;100.0
62458;BME280;48509;52.122;5.250;2023-05-22T01:17:53;101477.0;;;17.57;100.0
62458;BME280;48509;52.122;5.250;2023-05-22T01:19:51;101476.0;;;17.37;100.0
62458;BME280;48509;52.122;5.250;2023-05-22T01:21:36;101472.0;;;17.41;100.0
62458;BME280;48509;52.122;5.250;2023-05-22T01:26:31;101469.0;;;17.36;100.0
62458;BME280;48509;52.122;5.250;2023-05-22T01:28:33;101468.0;;;17.41;100.0
62458;BME280;48509;52.122;5.250;2023-05-22T01:30:37;101468.0;;;17.5;100.0
62458;BME280;48509;52.122;5.250;2023-05-22T01:32:22;101465.0;;;17.41;100.0
62458;BME280;48509;52.122;5.250;2023-05-22T01:34:01;101460.0;;;17.43;100.0
62458;BME280;48509;52.122;5.250;2023-05-22T01:37:16;101464.0;;;17.45;100.0
62458;BME280;48509;52.122;5.250;2023-05-22T01:38:55;101468.0;;;17.36;100.0
62458;BME280;48509;52.122;5.250;2023-05-22T01:40:32;101472.0;;;17.27;100.0
62458;BME280;48509;52.122;5.250;2023-05-22T01:42:09;101477.0;;;17.3;100.0
62458;BME280;48509;52.122;5.250;2023-05-22T01:45:21;101475.0;;;17.14;100.0
62458;BME280;48509;52.122;5.250;2023-05-22T01:46:57;101478.0;;;17.22;100.0
62458;BME280;48509;52.122;5.250;2023-05-22T01:48:34;101472.0;;;17.09;100.0
62458;BME280;48509;52.122;5.250;2023-05-22T01:51:51;101473.0;;;17.04;100.0
62458;BME280;48509;52.122;5.250;2023-05-22T01:53:32;101470.0;;;17.25;100.0
62458;BME280;48509;52.122;5.250;2023-05-22T01:55:17;101466.0;;;17.16;100.0
62458;BME280;48509;52.122;5.250;2023-05-22T01:57:06;101463.0;;;17.11;100.0
62458;BME280;48509;52.122;5.250;2023-05-22T02:00:39;101462.0;;;16.95;100.0
62458;BME280;48509;52.122;5.250;2023-05-22T02:02:19;101461.0;;;16.95;100.0
62458;BME280;48509;52.122;5.250;2023-05-22T02:03:57;101455.0;;;17.0;100.0
62458;BME280;48509;52.122;5.250;2023-05-22T02:05:37;101458.0;;;17.02;100.0
62458;BME280;48509;52.122;5.250;2023-05-22T02:07:16;101460.0;;;16.93;100.0
62458;BME280;48509;52.122;5.250;2023-05-22T02:10:32;101462.0;;;16.9;100.0
62458;BME280;48509;52.122;5.250;2023-05-22T02:12:11;101451.0;;;16.96;100.0
62458;BME280;48509;52.122;5.250;2023-05-22T02:13:48;101452.0;;;17.0;100.0
62458;BME280;48509;52.122;5.250;2023-05-22T02:17:00;101449.0;;;17.02;100.0
62458;BME280;48509;52.122;5.250;2023-05-22T02:18:36;101447.0;;;16.98;100.0
62458;BME280;48509;52.122;5.250;2023-05-22T02:20:13;101447.0;;;16.96;100.0
62458;BME280;48509;52.122;5.250;2023-05-22T02:23:27;101447.0;;;16.8;100.0
62458;BME280;48509;52.122;5.250;2023-05-22T02:25:04;101444.0;;;16.73;100.0
62458;BME280;48509;52.122;5.250;2023-05-22T02:26:41;101444.0;;;16.89;100.0
62458;BME280;48509;52.122;5.250;2023-05-22T02:28:18;101442.0;;;16.93;100.0
62458;BME280;48509;52.122;5.250;2023-05-22T02:31:30;101435.0;;;17.04;100.0
62458;BME280;48509;52.122;5.250;2023-05-22T02:33:06;101432.0;;;17.09;100.0
62458;BME280;48509;52.122;5.250;2023-05-22T02:34:42;101432.0;;;16.9;100.0
62458;BME280;48509;52.122;5.250;2023-05-22T02:37:55;101428.0;;;16.84;100.0
62458;BME280;48509;52.122;5.250;2023-05-22T02:39:31;101433.0;;;16.79;100.0
62458;BME280;48509;52.122;5.250;2023-05-22T02:41:07;101431.0;;;16.8;100.0
62458;BME280;48509;52.122;5.250;2023-05-22T02:44:20;101428.0;;;16.86;100.0
62458;BME280;48509;52.122;5.250;2023-05-22T02:45:55;101430.0;;;16.86;100.0
62458;BME280;48509;52.122;5.250;2023-05-22T02:47:32;101432.0;;;16.7;100.0
62458;BME280;48509;52.122;5.250;2023-05-22T02:49:08;101430.0;;;16.71;100.0
62458;BME280;48509;52.122;5.250;2023-05-22T02:52:20;101424.0;;;16.75;100.0
62458;BME280;48509;52.122;5.250;2023-05-22T02:53:56;101423.0;;;16.72;100.0
62458;BME280;48509;52.122;5.250;2023-05-22T02:55:33;101422.0;;;16.68;100.0
62458;BME280;48509;52.122;5.250;2023-05-22T02:58:45;101417.0;;;16.56;100.0
62458;BME280;48509;52.122;5.250;2023-05-22T03:00:21;101417.0;;;16.39;100.0
62458;BME280;48509;52.122;5.250;2023-05-22T03:01:57;101416.0;;;16.4;100.0
62458;BME280;48509;52.122;5.250;2023-05-22T03:05:10;101419.0;;;16.5;100.0
62458;BME280;48509;52.122;5.250;2023-05-22T03:06:46;101418.0;;;16.37;100.0
62458;BME280;48509;52.122;5.250;2023-05-22T03:08:22;101421.0;;;16.32;100.0
62458;BME280;48509;52.122;5.250;2023-05-22T03:11:35;101425.0;;;16.36;100.0
62458;BME280;48509;52.122;5.250;2023-05-22T03:13:11;101418.0;;;16.45;100.0
62458;BME280;48509;52.122;5.250;2023-05-22T03:14:47;101423.0;;;16.48;100.0
62458;BME280;48509;52.122;5.250;2023-05-22T03:16:23;101424.0;;;16.52;100.0
62458;BME280;48509;52.122;5.250;2023-05-22T03:19:34;101422.0;;;16.5;100.0
62458;BME280;48509;52.122;5.250;2023-05-22T03:21:11;101423.0;;;16.54;100.0
62458;BME280;48509;52.122;5.250;2023-05-22T03:22:47;101423.0;;;16.43;100.0
62458;BME280;48509;52.122;5.250;2023-05-22T03:25:59;101421.0;;;16.36;100.0
62458;BME280;48509;52.122;5.250;2023-05-22T03:27:37;101419.0;;;16.25;100.0
62458;BME280;48509;52.122;5.250;2023-05-22T03:29:15;101413.0;;;16.25;100.0
62458;BME280;48509;52.122;5.250;2023-05-22T03:32:27;101414.0;;;16.23;100.0
62458;BME280;48509;52.122;5.250;2023-05-22T03:34:03;101414.0;;;16.15;100.0
62458;BME280;48509;52.122;5.250;2023-05-22T03:35:39;101415.0;;;16.12;100.0
62458;BME280;48509;52.122;5.250;2023-05-22T03:37:16;101420.0;;;16.04;100.0
62458;BME280;48509;52.122;5.250;2023-05-22T03:40:29;101414.0;;;16.07;100.0
62458;BME280;48509;52.122;5.250;2023-05-22T03:42:05;101413.0;;;16.0;100.0
62458;BME280;48509;52.122;5.250;2023-05-22T03:43:41;101405.0;;;16.02;100.0
62458;BME280;48509;52.122;5.250;2023-05-22T03:46:53;101407.0;;;16.02;100.0
62458;BME280;48509;52.122;5.250;2023-05-22T03:48:31;101411.0;;;16.09;100.0
62458;BME280;48509;52.122;5.250;2023-05-22T03:50:09;101410.0;;;16.07;100.0
62458;BME280;48509;52.122;5.250;2023-05-22T03:53:21;101412.0;;;16.02;100.0
62458;BME280;48509;52.122;5.250;2023-05-22T03:54:57;101414.0;;;15.97;100.0
62458;BME280;48509;52.122;5.250;2023-05-22T03:56:34;101417.0;;;16.2;100.0
62458;BME280;48509;52.122;5.250;2023-05-22T03:58:10;101419.0;;;16.39;100.0
62458;BME280;48509;52.122;5.250;2023-05-22T04:01:22;101417.0;;;16.5;100.0
62458;BME280;48509;52.122;5.250;2023-05-22T04:02:58;101411.0;;;16.18;100.0
62458;BME280;48509;52.122;5.250;2023-05-22T04:04:34;101410.0;;;16.2;100.0
62458;BME280;48509;52.122;5.250;2023-05-22T04:07:47;101407.0;;;16.11;100.0
62458;BME280;48509;52.122;5.250;2023-05-22T04:09:25;101413.0;;;16.03;100.0
62458;BME280;48509;52.122;5.250;2023-05-22T04:11:01;101413.0;;;15.95;100.0
62458;BME280;48509;52.122;5.250;2023-05-22T04:14:13;101412.0;;;15.97;100.0
62458;BME280;48509;52.122;5.250;2023-05-22T04:15:50;101413.0;;;16.0;100.0
62458;BME280;48509;52.122;5.250;2023-05-22T04:17:30;101411.0;;;15.87;100.0
62458;BME280;48509;52.122;5.250;2023-05-22T04:19:07;101413.0;;;15.9;100.0
62458;BME280;48509;52.122;5.250;2023-05-22T04:22:19;101420.0;;;15.84;100.0
62458;BME280;48509;52.122;5.250;2023-05-22T04:25:31;101426.0;;;15.79;100.0
62458;BME280;48509;52.122;5.250;2023-05-22T04:28:44;101428.0;;;15.78;100.0
62458;BME280;48509;52.122;5.250;2023-05-22T04:30:20;101432.0;;;15.79;100.0
62458;BME280;48509;52.122;5.250;2023-05-22T04:31:56;101433.0;;;15.75;100.0
62458;BME280;48509;52.122;5.250;2023-05-22T04:35:09;101439.0;;;15.72;100.0
62458;BME280;48509;52.122;5.250;2023-05-22T04:36:46;101455.0;;;15.87;100.0
62458;BME280;48509;52.122;5.250;2023-05-22T04:38:22;101465.0;;;16.03;100.0
62458;BME280;48509;52.122;5.250;2023-05-22T04:39:58;101471.0;;;15.98;100.0
62458;BME280;48509;52.122;5.250;2023-05-22T04:43:11;101467.0;;;16.03;100.0
62458;BME280;48509;52.122;5.250;2023-05-22T04:44:47;101476.0;;;16.11;100.0
62458;BME280;48509;52.122;5.250;2023-05-22T04:46:23;101472.0;;;16.18;100.0
62458;BME280;48509;52.122;5.250;2023-05-22T04:49:36;101467.0;;;16.03;100.0
62458;BME280;48509;52.122;5.250;2023-05-22T04:51:12;101463.0;;;15.96;100.0
62458;BME280;48509;52.122;5.250;2023-05-22T04:52:49;101461.0;;;15.93;100.0
62458;BME280;48509;52.122;5.250;2023-05-22T04:56:01;101459.0;;;15.89;100.0
62458;BME280;48509;52.122;5.250;2023-05-22T04:57:37;101461.0;;;15.95;100.0
62458;BME280;48509;52.122;5.250;2023-05-22T04:59:13;101472.0;;;16.03;100.0
62458;BME280;48509;52.122;5.250;2023-05-22T05:02:25;101473.0;;;16.02;100.0
62458;BME280;48509;52.122;5.250;2023-05-22T05:04:02;101471.0;;;16.2;100.0
62458;BME280;48509;52.122;5.250;2023-05-22T05:05:38;101475.0;;;16.18;100.0
62458;BME280;48509;52.122;5.250;2023-05-22T05:07:14;101474.0;;;16.27;100.0
62458;BME280;48509;52.122;5.250;2023-05-22T05:12:02;101476.0;;;16.12;100.0
62458;BME280;48509;52.122;5.250;2023-05-22T05:13:39;101480.0;;;16.21;100.0
62458;BME280;48509;52.122;5.250;2023-05-22T05:16:51;101475.0;;;16.31;100.0
62458;BME280;48509;52.122;5.250;2023-05-22T05:18:27;101473.0;;;16.28;100.0
62458;BME280;48509;52.122;5.250;2023-05-22T05:20:05;101476.0;;;16.48;100.0
62458;BME280;48509;52.122;5.250;2023-05-22T05:23:19;101474.0;;;16.48;100.0
62458;BME280;48509;52.122;5.250;2023-05-22T05:24:55;101471.0;;;16.57;100.0
62458;BME280;48509;52.122;5.250;2023-05-22T05:26:31;101468.0;;;16.52;100.0
62458;BME280;48509;52.122;5.250;2023-05-22T05:28:07;101473.0;;;16.73;100.0
62458;BME280;48509;52.122;5.250;2023-05-22T05:31:20;101475.0;;;16.65;100.0
62458;BME280;48509;52.122;5.250;2023-05-22T05:32:56;101469.0;;;16.7;100.0
62458;BME280;48509;52.122;5.250;2023-05-22T05:34:32;101469.0;;;16.68;100.0
62458;BME280;48509;52.122;5.250;2023-05-22T05:37:44;101467.0;;;16.59;100.0
62458;BME280;48509;52.122;5.250;2023-05-22T05:39:21;101471.0;;;16.79;100.0
62458;BME280;48509;52.122;5.250;2023-05-22T05:40:57;101468.0;;;16.77;100.0
62458;BME280;48509;52.122;5.250;2023-05-22T05:44:09;101465.0;;;16.78;100.0
62458;BME280;48509;52.122;5.250;2023-05-22T05:45:45;101463.0;;;16.8;100.0
62458;BME280;48509;52.122;5.250;2023-05-22T05:47:21;101466.0;;;16.84;100.0
62458;BME280;48509;52.122;5.250;2023-05-22T05:50:34;101460.0;;;16.77;100.0
62458;BME280;48509;52.122;5.250;2023-05-22T05:52:10;101459.0;;;16.86;100.0
62458;BME280;48509;52.122;5.250;2023-05-22T05:53:46;101456.0;;;16.88;100.0
62458;BME280;48509;52.122;5.250;2023-05-22T05:55:23;101464.0;;;17.02;100.0
62458;BME280;48509;52.122;5.250;2023-05-22T05:58:34;101465.0;;;17.25;100.0
62458;BME280;48509;52.122;5.250;2023-05-22T06:00:11;101468.0;;;17.25;100.0
62458;BME280;48509;52.122;5.250;2023-05-22T06:01:47;101462.0;;;17.31;100.0
62458;BME280;48509;52.122;5.250;2023-05-22T06:05:00;101458.0;;;17.32;100.0
62458;BME280;48509;52.122;5.250;2023-05-22T06:06:36;101462.0;;;17.36;100.0
62458;BME280;48509;52.122;5.250;2023-05-22T06:08:12;101461.0;;;17.45;100.0
62458;BME280;48509;52.122;5.250;2023-05-22T06:11:24;101459.0;;;17.37;100.0
62458;BME280;48509;52.122;5.250;2023-05-22T06:13:01;101457.0;;;17.54;100.0
62458;BME280;48509;52.122;5.250;2023-05-22T06:14:37;101460.0;;;17.61;100.0
62458;BME280;48509;52.122;5.250;2023-05-22T06:16:13;101459.0;;;17.52;100.0
62458;BME280;48509;52.122;5.250;2023-05-22T06:19:25;101466.0;;;17.61;100.0
62458;BME280;48509;52.122;5.250;2023-05-22T06:21:02;101465.0;;;17.59;100.0
62458;BME280;48509;52.122;5.250;2023-05-22T06:22:38;101469.0;;;17.66;100.0
62458;BME280;48509;52.122;5.250;2023-05-22T06:25:50;101467.0;;;17.68;100.0
62458;BME280;48509;52.122;5.250;2023-05-22T06:27:26;101466.0;;;17.77;100.0
62458;BME280;48509;52.122;5.250;2023-05-22T06:29:02;101468.0;;;17.84;100.0
62458;BME280;48509;52.122;5.250;2023-05-22T06:32:15;101471.0;;;18.06;100.0
62458;BME280;48509;52.122;5.250;2023-05-22T06:33:51;101468.0;;;18.12;100.0
62458;BME280;48509;52.122;5.250;2023-05-22T06:35:27;101474.0;;;18.09;100.0
62458;BME280;48509;52.122;5.250;2023-05-22T06:38:39;101476.0;;;18.14;100.0
62458;BME280;48509;52.122;5.250;2023-05-22T06:40:16;101478.0;;;18.2;100.0
62458;BME280;48509;52.122;5.250;2023-05-22T06:41:53;101472.0;;;18.14;100.0
62458;BME280;48509;52.122;5.250;2023-05-22T06:43:30;101473.0;;;18.18;100.0
62458;BME280;48509;52.122;5.250;2023-05-22T06:46:43;101471.0;;;18.29;100.0
62458;BME280;48509;52.122;5.250;2023-05-22T06:48:19;101478.0;;;18.37;100.0
62458;BME280;48509;52.122;5.250;2023-05-22T06:49:55;101482.0;;;18.25;100.0
62458;BME280;48509;52.122;5.250;2023-05-22T06:53:08;101485.0;;;18.47;100.0
62458;BME280;48509;52.122;5.250;2023-05-22T06:54:44;101486.0;;;18.47;100.0
62458;BME280;48509;52.122;5.250;2023-05-22T06:56:20;101484.0;;;18.47;100.0
62458;BME280;48509;52.122;5.250;2023-05-22T06:59:33;101478.0;;;18.52;100.0
62458;BME280;48509;52.122;5.250;2023-05-22T07:01:09;101483.0;;;18.57;100.0
62458;BME280;48509;52.122;5.250;2023-05-22T07:02:45;101483.0;;;18.71;100.0
62458;BME280;48509;52.122;5.250;2023-05-22T07:04:21;101497.0;;;18.71;100.0
62458;BME280;48509;52.122;5.250;2023-05-22T07:07:34;101492.0;;;18.84;100.0
62458;BME280;48509;52.122;5.250;2023-05-22T07:09:10;101492.0;;;18.8;100.0
62458;BME280;48509;52.122;5.250;2023-05-22T07:10:46;101493.0;;;18.77;100.0
62458;BME280;48509;52.122;5.250;2023-05-22T07:13:59;101491.0;;;19.0;100.0
62458;BME280;48509;52.122;5.250;2023-05-22T07:15:35;101494.0;;;19.0;100.0
62458;BME280;48509;52.122;5.250;2023-05-22T07:17:11;101494.0;;;18.96;100.0
62458;BME280;48509;52.122;5.250;2023-05-22T07:20:24;101498.0;;;19.2;100.0
62458;BME280;48509;52.122;5.250;2023-05-22T07:22:00;101497.0;;;19.25;100.0
62458;BME280;48509;52.122;5.250;2023-05-22T07:23:36;101500.0;;;19.29;100.0
62458;BME280;48509;52.122;5.250;2023-05-22T07:26:49;101497.0;;;19.48;100.0
62458;BME280;48509;52.122;5.250;2023-05-22T07:28:25;101499.0;;;19.53;100.0
62458;BME280;48509;52.122;5.250;2023-05-22T07:30:01;101503.0;;;19.55;100.0
62458;BME280;48509;52.122;5.250;2023-05-22T07:31:37;101507.0;;;19.59;100.0
62458;BME280;48509;52.122;5.250;2023-05-22T07:34:49;101505.0;;;19.64;100.0
62458;BME280;48509;52.122;5.250;2023-05-22T07:36:26;101498.0;;;19.61;100.0
62458;BME280;48509;52.122;5.250;2023-05-22T07:38:02;101502.0;;;19.84;100.0
62458;BME280;48509;52.122;5.250;2023-05-22T07:41:14;101497.0;;;19.84;100.0
62458;BME280;48509;52.122;5.250;2023-05-22T07:42:50;101492.0;;;19.91;100.0
62458;BME280;48509;52.122;5.250;2023-05-22T07:44:26;101497.0;;;20.0;100.0
62458;BME280;48509;52.122;5.250;2023-05-22T07:47:39;101502.0;;;20.2;100.0
62458;BME280;48509;52.122;5.250;2023-05-22T07:49:15;101495.0;;;20.16;100.0
62458;BME280;48509;52.122;5.250;2023-05-22T07:50:51;101498.0;;;20.07;100.0
62458;BME280;48509;52.122;5.250;2023-05-22T07:52:27;101492.0;;;20.2;100.0
62458;BME280;48509;52.122;5.250;2023-05-22T07:55:40;101493.0;;;20.34;100.0
62458;BME280;48509;52.122;5.250;2023-05-22T07:57:16;101497.0;;;20.49;100.0
62458;BME280;48509;52.122;5.250;2023-05-22T07:58:52;101498.0;;;20.48;100.0
62458;BME280;48509;52.122;5.250;2023-05-22T08:02:05;101496.0;;;20.54;100.0
62458;BME280;48509;52.122;5.250;2023-05-22T08:03:41;101494.0;;;20.56;100.0
62458;BME280;48509;52.122;5.250;2023-05-22T08:05:17;101495.0;;;20.64;100.0
62458;BME280;48509;52.122;5.250;2023-05-22T08:08:29;101497.0;;;20.73;100.0
62458;BME280;48509;52.122;5.250;2023-05-22T08:10:11;101500.0;;;20.8;100.0
62458;BME280;48509;52.122;5.250;2023-05-22T08:11:48;101499.0;;;20.88;100.0
62458;BME280;48509;52.122;5.250;2023-05-22T08:13:25;101501.0;;;20.84;100.0
62458;BME280;48509;52.122;5.250;2023-05-22T08:16:37;101507.0;;;21.02;100.0
62458;BME280;48509;52.122;5.250;2023-05-22T08:18:13;101509.0;;;21.24;97.03
62458;BME280;48509;52.122;5.250;2023-05-22T08:19:49;101510.0;;;21.39;97.22
62458;BME280;48509;52.122;5.250;2023-05-22T08:23:02;101508.0;;;21.38;99.54
62458;BME280;48509;52.122;5.250;2023-05-22T08:24:38;101509.0;;;21.53;96.87
62458;BME280;48509;52.122;5.250;2023-05-22T08:26:14;101507.0;;;21.63;91.8
62458;BME280;48509;52.122;5.250;2023-05-22T08:29:27;101510.0;;;21.76;89.2
62458;BME280;48509;52.122;5.250;2023-05-22T08:31:04;101508.0;;;21.9;91.5
62458;BME280;48509;52.122;5.250;2023-05-22T08:32:40;101509.0;;;21.98;87.84
62458;BME280;48509;52.122;5.250;2023-05-22T08:34:16;101505.0;;;21.89;90.93
62458;BME280;48509;52.122;5.250;2023-05-22T08:37:28;101501.0;;;21.84;85.7
62458;BME280;48509;52.122;5.250;2023-05-22T08:39:05;101497.0;;;22.11;89.55
62458;BME280;48509;52.122;5.250;2023-05-22T08:40:41;101500.0;;;22.12;89.14
62458;BME280;48509;52.122;5.250;2023-05-22T08:43:59;101498.0;;;22.09;89.99
62458;BME280;48509;52.122;5.250;2023-05-22T08:45:35;101498.0;;;22.35;85.41
62458;BME280;48509;52.122;5.250;2023-05-22T08:47:12;101501.0;;;22.36;84.15
62458;BME280;48509;52.122;5.250;2023-05-22T08:50:24;101496.0;;;22.45;86.5
62458;BME280;48509;52.122;5.250;2023-05-22T08:52:06;101496.0;;;22.67;86.61
62458;BME280;48509;52.122;5.250;2023-05-22T08:53:47;101489.0;;;22.74;83.18
62458;BME280;48509;52.122;5.250;2023-05-22T08:55:27;101485.0;;;22.82;85.21
62458;BME280;48509;52.122;5.250;2023-05-22T08:58:40;101490.0;;;22.83;86.48
62458;BME280;48509;52.122;5.250;2023-05-22T09:00:18;101482.0;;;23.04;85.16
62458;BME280;48509;52.122;5.250;2023-05-22T09:01:56;101485.0;;;23.12;84.53
62458;BME280;48509;52.122;5.250;2023-05-22T09:03:35;101485.0;;;23.18;79.36
62458;BME280;48509;52.122;5.250;2023-05-22T09:06:47;101487.0;;;23.25;81.08
62458;BME280;48509;52.122;5.250;2023-05-22T09:08:23;101488.0;;;23.27;83.45
62458;BME280;48509;52.122;5.250;2023-05-22T09:09:59;101490.0;;;23.32;81.22
62458;BME280;48509;52.122;5.250;2023-05-22T09:13:23;101488.0;;;23.36;80.31
62458;BME280;48509;52.122;5.250;2023-05-22T09:15:06;101487.0;;;23.43;80.66
62458;BME280;48509;52.122;5.250;2023-05-22T09:16:44;101484.0;;;23.41;81.92
62458;BME280;48509;52.122;5.250;2023-05-22T09:18:24;101482.0;;;23.24;82.04
62458;BME280;48509;52.122;5.250;2023-05-22T09:21:40;101478.0;;;23.24;82.74
62458;BME280;48509;52.122;5.250;2023-05-22T09:23:15;101477.0;;;23.25;84.25
62458;BME280;48509;52.122;5.250;2023-05-22T09:24:52;101474.0;;;23.31;84.05
62458;BME280;48509;52.122;5.250;2023-05-22T09:28:04;101475.0;;;23.48;83.09
62458;BME280;48509;52.122;5.250;2023-05-22T09:29:49;101476.0;;;23.65;82.41
62458;BME280;48509;52.122;5.250;2023-05-22T09:31:27;101477.0;;;23.68;82.02
62458;BME280;48509;52.122;5.250;2023-05-22T09:33:04;101478.0;;;23.89;78.94
62458;BME280;48509;52.122;5.250;2023-05-22T09:36:16;101481.0;;;23.85;79.7
62458;BME280;48509;52.122;5.250;2023-05-22T09:37:53;101477.0;;;23.91;75.92
62458;BME280;48509;52.122;5.250;2023-05-22T09:39:37;101475.0;;;23.82;79.99
62458;BME280;48509;52.122;5.250;2023-05-22T09:41:19;101475.0;;;23.9;82.11
62458;BME280;48509;52.122;5.250;2023-05-22T09:44:31;101473.0;;;23.89;76.41
62458;BME280;48509;52.122;5.250;2023-05-22T09:46:07;101472.0;;;23.96;78.75
62458;BME280;48509;52.122;5.250;2023-05-22T09:47:47;101477.0;;;24.06;75.61
62458;BME280;48509;52.122;5.250;2023-05-22T09:51:01;101474.0;;;24.11;77.03
62458;BME280;48509;52.122;5.250;2023-05-22T09:52:37;101471.0;;;24.29;76.86
62458;BME280;48509;52.122;5.250;2023-05-22T09:54:14;101471.0;;;24.17;78.83
62458;BME280;48509;52.122;5.250;2023-05-22T09:55:52;101469.0;;;24.22;76.12
62458;BME280;48509;52.122;5.250;2023-05-22T09:59:08;101472.0;;;24.42;75.58
62458;BME280;48509;52.122;5.250;2023-05-22T10:00:47;101474.0;;;24.37;76.06
62458;BME280;48509;52.122;5.250;2023-05-22T10:02:26;101469.0;;;24.26;73.05
62458;BME280;48509;52.122;5.250;2023-05-22T10:05:42;101475.0;;;24.41;75.06
62458;BME280;48509;52.122;5.250;2023-05-22T10:07:35;101470.0;;;24.22;74.58
62458;BME280;48509;52.122;5.250;2023-05-22T10:09:15;101473.0;;;24.38;73.42
62458;BME280;48509;52.122;5.250;2023-05-22T10:10:52;101471.0;;;24.41;73.05
62458;BME280;48509;52.122;5.250;2023-05-22T10:14:09;101478.0;;;24.37;72.08
62458;BME280;48509;52.122;5.250;2023-05-22T10:15:46;101478.0;;;24.09;72.94
62458;BME280;48509;52.122;5.250;2023-05-22T10:17:23;101471.0;;;24.14;74.81
62458;BME280;48509;52.122;5.250;2023-05-22T10:19:00;101470.0;;;24.23;76.3
62458;BME280;48509;52.122;5.250;2023-05-22T10:22:13;101473.0;;;24.2;76.27
62458;BME280;48509;52.122;5.250;2023-05-22T10:23:52;101471.0;;;24.23;76.55
62458;BME280;48509;52.122;5.250;2023-05-22T10:25:30;101476.0;;;24.33;76.63
62458;BME280;48509;52.122;5.250;2023-05-22T10:28:46;101470.0;;;24.26;76.74
62458;BME280;48509;52.122;5.250;2023-05-22T10:30:31;101467.0;;;24.07;78.77
62458;BME280;48509;52.122;5.250;2023-05-22T10:32:14;101465.0;;;24.21;76.5
62458;BME280;48509;52.122;5.250;2023-05-22T10:33:58;101466.0;;;24.4;76.8
62458;BME280;48509;52.122;5.250;2023-05-22T10:35:40;101464.0;;;24.26;75.12
62458;BME280;48509;52.122;5.250;2023-05-22T10:39:33;101462.0;;;24.31;73.31
62458;BME280;48509;52.122;5.250;2023-05-22T10:41:16;101463.0;;;24.39;74.44
62458;BME280;48509;52.122;5.250;2023-05-22T10:42:57;101462.0;;;24.28;79.19
62458;BME280;48509;52.122;5.250;2023-05-22T10:44:34;101459.0;;;24.34;74.23
62458;BME280;48509;52.122;5.250;2023-05-22T10:46:11;101457.0;;;24.47;74.67
62458;BME280;48509;52.122;5.250;2023-05-22T10:49:23;101457.0;;;24.56;72.45
62458;BME280;48509;52.122;5.250;2023-05-22T10:51:00;101455.0;;;24.59;77.87
62458;BME280;48509;52.122;5.250;2023-05-22T10:52:36;101455.0;;;24.65;74.27
62458;BME280;48509;52.122;5.250;2023-05-22T10:55:51;101453.0;;;24.62;70.14
62458;BME280;48509;52.122;5.250;2023-05-22T10:57:31;101456.0;;;24.64;71.61
62458;BME280;48509;52.122;5.250;2023-05-22T10:59:07;101458.0;;;24.7;74.19
62458;BME280;48509;52.122;5.250;2023-05-22T11:00:44;101456.0;;;24.72;72.2
62458;BME280;48509;52.122;5.250;2023-05-22T11:04:08;101460.0;;;24.88;70.34
62458;BME280;48509;52.122;5.250;2023-05-22T11:05:51;101455.0;;;24.79;72.95
62458;BME280;48509;52.122;5.250;2023-05-22T11:07:37;101458.0;;;24.9;70.24
62458;BME280;48509;52.122;5.250;2023-05-22T11:09:17;101455.0;;;24.99;71.72
62458;BME280;48509;52.122;5.250;2023-05-22T11:12:32;101455.0;;;24.87;69.67
62458;BME280;48509;52.122;5.250;2023-05-22T11:14:09;101446.0;;;25.01;71.58